This is the latest recevied weather packets stored in our database for station/object N7UV-WX. If no packets are shown the sender has not sent any weather packets the latest 10 day(s).
| Time | Temp. | Humidity | Pressure | Rain* | Wind** | Luminosity | Snow |
|---|---|---|---|---|---|---|---|
| 1777239919 | 22.78° C | 26% | 1008.2 hPa | 0 mm | - | 1069 W/m² | - |
| 1777238719 | 22.22° C | 27% | 1008.5 hPa | 0 mm | - | 292 W/m² | - |
| 1777236319 | 21.67° C | 28% | 1008.9 hPa | 0 mm | - | 1151 W/m² | - |
| 1777230920 | 21.11° C | 30% | 1009.5 hPa | 0 mm | - | 1202 W/m² | - |
| 1777228520 | 20° C | 32% | 1009.7 hPa | 0 mm | - | 1014 W/m² | - |
| 1777226150 | 19.44° C | 35% | 1009.6 hPa | 0 mm | - | 945 W/m² | - |
| 1777221320 | 18.33° C | 37% | 1009.1 hPa | 0 mm | - | 747 W/m² | - |
| 1777213535 | 17.22° C | 39% | 1007.5 hPa | 0 mm | - | 54 W/m² | - |
| 1777210540 | 17.22° C | 39% | 1006.5 hPa | 0 mm | - | 23 W/m² | - |
| 1777193119 | 21.67° C | 27% | 1004.9 hPa | 0 mm | - | 0 W/m² | - |
| 1777191336 | 21.67° C | 30% | 1004.9 hPa | 0 mm | - | 0 W/m² | - |
| 1777190119 | 22.22° C | 27% | 1005 hPa | 0 mm | - | 0 W/m² | - |
| 1777189534 | 22.22° C | 24% | 1005.1 hPa | 0 mm | - | 0 W/m² | - |
| 1777188919 | 22.78° C | 22% | 1005 hPa | 0 mm | - | 0 W/m² | - |
| 1777186519 | 23.33° C | 15% | 1005 hPa | 0 mm | - | 0 W/m² | - |
| 1777185918 | 23.33° C | 15% | 1005 hPa | 0 mm | - | 0 W/m² | - |
| 1777185353 | 23.33° C | 15% | 1005.1 hPa | 0 mm | - | 0 W/m² | - |
| 1777183520 | 23.89° C | 14% | 1005.1 hPa | 0 mm | - | 0 W/m² | - |
| 1777181119 | 24.44° C | 15% | 1005.2 hPa | 0 mm | - | 0 W/m² | - |
| 1777176935 | 25° C | 20% | 1005 hPa | 0 mm | - | 0 W/m² | - |
| 1777175120 | 25° C | 20% | 1004.9 hPa | 0 mm | - | 0 W/m² | - |
| 1777169120 | 25.56° C | 19% | 1004.6 hPa | 0 mm | - | 0 W/m² | - |
| 1777163154 | 26.11° C | 19% | 1005.2 hPa | 0 mm | - | 120 W/m² | - |
| 1777162534 | 26.11° C | 18% | 1005.3 hPa | 0 mm | - | 135 W/m² | - |
| 1777160119 | 26.67° C | 16% | 1005.2 hPa | 0 mm | - | 552 W/m² | - |
* Rain latest hour (hover to see other rain measurements)
** Current wind speed in m/s (hover to see current wind gust speed)